NCAR-RAP Real-Time Weather Data

Output produced by METARs form (12 August 2020  18:32 UTC)
found at http://weather.rap.ucar.edu/surface/
 
KDEN 121753Z 22005KT 10SM FEW090 FEW120 SCT180 31/06 A3009 RMK AO2 SLP092 VIRGA W T03110061 10311 20128 58017
KDEN 121653Z 23007KT 10SM FEW090 FEW120 SCT180 28/09 A3011 RMK AO2 SLP105 T02780089
KDEN 121553Z 21006KT 10SM FEW080 FEW100 SCT180 25/13 A3012 RMK AO2 SLP114 T02500128
KDEN 121453Z 21009KT 10SM FEW020 FEW100 SCT180 22/14 A3014 RMK AO2 SLP121 T02170139 50007
KDEN 121353Z 18012KT 10SM FEW020 FEW100 SCT180 18/14 A3015 RMK AO2 SLP124 T01830144
KDEN 121253Z 16007KT 10SM BKN180 14/12 A3014 RMK AO2 SLP123 T01440117
KDEN 121153Z 16005KT 10SM SCT170 14/11 A3012 RMK AO2 SLP113 T01440106 10228 20133 53021
KDEN 121058Z 27005KT 10SM CLR 17/11 A3008 RMK AO2 T01670106
KDEN 121053Z 10SM CLR 16/09 A3009 RMK AO2 SLP098 T01560094
KDEN 120953Z 27007KT 10SM CLR 17/09 A3006 RMK AO2 SLP086 T01720094
KDEN 120853Z 22007KT 10SM FEW150 18/13 A3005 RMK AO2 SLP079 T01780128 53001
KDEN 120753Z 16007KT 10SM FEW150 FEW220 18/14 A3004 RMK AO2 SLP080 T01830144
KDEN 120653Z 15010KT 10SM FEW150 FEW220 21/15 A3005 RMK AO2 SLP077 T02060150 403610178
KDEN 120553Z 15016G25KT 10SM FEW150 FEW220 23/15 A3005 RMK AO2 PK WND 15027/0522 SLP075 T02280150 10344 20228 55001
KDEN 120453Z 12010KT 10SM FEW150 SCT220 23/12 A3004 RMK AO2 PK WND 14028/0409 SLP075 T02330117
KDEN 120353Z 12012KT 10SM BKN160 BKN220 24/08 A3005 RMK AO2 WSHFT 0330 SLP082 T02390078
KDEN 120350Z 14008KT 10SM BKN160 BKN220 24/08 A3005 RMK AO2 WSHFT 0330
KDEN 120253Z 05008KT 10SM SCT160 BKN220 27/02 A3001 RMK AO2 SLP071 T02670022 53008
KDEN 120153Z 36008KT 10SM SCT150 BKN220 29/00 A2999 RMK AO2 SLP065 T02940000
KDEN 120053Z 25010KT 10SM SCT150 BKN220 32/M01 A2998 RMK AO2 SLP062 VIRGA T03221006
KDEN 112353Z 23010KT 10SM FEW110 BKN150 BKN220 34/M02 A2998 RMK AO2 SLP055 T03441017 10361 20333 55007
KDEN 112253Z 20004KT 10SM FEW100 SCT150 BKN220 35/M02 A2998 RMK AO2 SLP054 VIRGA SW T03501017
KDEN 112153Z 31009KT 10SM FEW100 SCT150 BKN220 35/M02 A2999 RMK AO2 SLP057 T03501017
KDEN 112053Z 11003KT 10SM FEW100 SCT150 SCT220 36/M01 A3001 RMK AO2 SLP062 T03611011 56013
KDEN 111953Z 20010G17KT 10SM FEW100 SCT150 BKN220 34/M02 A3002 RMK AO2 SLP067 T03391022
KDEN 111853Z 22011KT 10SM FEW100 SCT150 BKN220 35/M02 A3003 RMK AO2 SLP071 T03501017
KDEN 111753Z 21007KT 9SM FEW100 SCT150 SCT200 34/M01 A3005 RMK AO2 SLP077 T03391006 10344 20178 58012
KDEN 111653Z VRB04KT 10SM FEW100 SCT150 BKN200 32/03 A3007 RMK AO2 SLP087 T03220028
KDEN 111553Z 22010KT 10SM FEW100 SCT140 BKN180 28/07 A3008 RMK AO2 SLP094 T02780072
KDEN 111453Z 17004KT 10SM FEW100 SCT140 SCT180 23/12 A3009 RMK AO2 SLP101 T02330122 51005
KDEN 111353Z 00000KT 10SM FEW100 SCT140 SCT180 21/14 A3009 RMK AO2 SLP105 T02060139
KDEN 111253Z 33005KT 10SM SCT150 BKN180 18/10 A3009 RMK AO2 SLP104 VIRGA T01780100
KDEN 111153Z 28007KT 10SM SCT150 BKN180 19/06 A3008 RMK AO2 SLP095 VIRGA T01940056 10228 20183 55004
KDEN 111053Z 24006KT 10SM BKN180 19/07 A3006 RMK AO2 SLP091 T01890067
KDEN 110953Z 22008KT 10SM SCT180 19/04 A3007 RMK AO2 SLP093 T01890044
KDEN 110853Z 20009KT 10SM FEW180 19/04 A3009 RMK AO2 SLP102 T01890039 57001
KDEN 110753Z 23012KT 10SM FEW180 22/04 A3008 RMK AO2 SLP096 T02220044
KDEN 110653Z 20009KT 10SM SCT150 BKN180 22/06 A3010 RMK AO2 SLP106 T02170056 403110156
KDEN 110553Z 21011KT 10SM CLR 23/04 A3009 RMK AO2 SLP106 T02280044 10311 20200 55001
KDEN 110453Z 17009KT 10SM CLR 21/07 A3009 RMK AO2 SLP110 T02110072
KDEN 110353Z 16009KT 10SM FEW160 SCT220 23/08 A3010 RMK AO2 SLP113 T02330083
KDEN 110253Z 16013KT 10SM FEW100 SCT120 BKN160 BKN220 26/08 A3010 RMK AO2 SLP111 T02610083 53003
KDEN 110153Z 10008KT 10SM FEW110 SCT160 BKN220 27/08 A3009 RMK AO2 LTG DSNT W SLP108 VIRGA W T02720083
KDEN 110053Z 05009KT 10SM FEW110 FEW160 SCT220 29/09 A3009 RMK AO2 SLP107 VIRGA NW TCU DSNT SW T02940089
KDEN 102353Z 09011KT 10SM FEW100 FEW160 SCT220 31/08 A3009 RMK AO2 SLP105 T03060078 10311 20244 58010
KDEN 102253Z 13009KT 10SM FEW100 FEW160 FEW220 31/08 A3010 RMK AO2 SLP107 T03110083
KDEN 102153Z 08008KT 10SM FEW100 FEW160 SCT220 31/08 A3012 RMK AO2 SLP106 T03060083
KDEN 102053Z 07008KT 020V080 10SM FEW090 FEW150 SCT220 30/09 A3012 RMK AO2 SLP110 T03000094 58017
KDEN 101953Z 04008KT 340V100 10SM FEW090 FEW150 SCT220 29/10 A3015 RMK AO2 SLP126 T02890100
KDEN 101853Z 00000KT 10SM FEW090 FEW160 FEW220 27/11 A3017 RMK AO2 SLP131 T02670106